KISP/ISP METAR and TAF weather

Enter ICAO airport designator
Station Type Date Time Source
KISP METAR 2018/12/13 08:56 UTC NOAA

KISP 130856Z AUTO 06008KT 10SM SCT120 M01/M08 A3034 RMK AO2 SLP274 T10111078 50010


Station Type Date Time Source
KISP Decoded METAR 2018/12/13 08:56 UTC NOAA

ISLIP LONG ISLAND MAC ART, NY, United States (KISP) 40-48N 073-06W 43M
Dec 13, 2018 - 03:56 AM EST / 2018.12.13 0856 UTC
Wind: from the ENE (060 degrees) at 9 MPH (8 KT):0
Visibility: 10 mile(s):0
Sky conditions: partly cloudy
Temperature: 30.0 F (-1.1 C)
Windchill: 21 F (-6 C):1
Dew Point: 18.0 F (-7.8 C)
Relative Humidity: 60%
Pressure (altimeter): 30.34 in. Hg (1027 hPa)
Pressure tendency: 0.03 inches (1.0 hPa) higher than three hours ago
ob: KISP 130856Z AUTO 06008KT 10SM SCT120 M01/M08 A3034 RMK AO2 SLP274 T10111078 50010
cycle: 9

Station Type Date Time Source
KISP TAF 2018/12/13 08:15 UTC NOAA

TAF
AMD KISP 130811Z 1308/1406 08008KT P6SM SCT035 BKN150
FM131200 10008KT P6SM BKN030 BKN120
FM131500 11010KT 6SM -RASN OVC025
FM131700 12010KT 6SM -RA OVC020
FM132300 09008KT P6SM OVC015


Example: see airport list